Time;durP1;ratioP1;P1;durP2;ratioP2;P2;SDS_P1;SDS_P2;PMS_P1;PMS_P2;Temp;Humidity;BMP_temperature;BMP_pressure;BME280_temperature;BME280_humidity;BME280_pressure;Samples;Min_cycle;Max_cycle;Signal;HPM_P1;HPM_P2
2023/07/30 00:02:18;;;;;;;6.53;3.17;;;17.10;99.90;;;;;;5015378;28;20079;-67
2023/07/30 00:04:45;;;;;;;14.10;2.95;;;16.90;99.90;;;;;;5031796;28;20033;-68
2023/07/30 00:07:11;;;;;;;5.47;1.90;;;16.70;99.90;;;;;;5033389;28;20017;-67
2023/07/30 00:09:37;;;;;;;3.40;1.50;;;16.60;99.90;;;;;;5033717;28;20346;-67
2023/07/30 00:12:07;;;;;;;5.78;1.80;;;16.50;99.90;;;;;;5033593;28;20022;-67
2023/07/30 00:14:33;;;;;;;4.82;1.55;;;16.40;99.90;;;;;;5036571;28;20029;-66
2023/07/30 00:16:59;;;;;;;4.07;1.58;;;16.40;99.90;;;;;;5037204;28;20049;-66
2023/07/30 00:19:24;;;;;;;4.40;1.60;;;16.30;99.90;;;;;;5037218;28;20031;-66
2023/07/30 00:21:53;;;;;;;5.13;1.80;;;16.30;99.90;;;;;;5037154;28;20079;-67
2023/07/30 00:24:18;;;;;;;3.72;1.33;;;16.30;99.90;;;;;;5037127;28;20108;-65
2023/07/30 00:26:44;;;;;;;6.10;1.83;;;16.30;99.90;;;;;;5037625;28;20060;-66
2023/07/30 00:29:10;;;;;;;2.55;1.55;;;16.20;99.90;;;;;;5036996;28;20025;-67
2023/07/30 00:31:35;;;;;;;5.40;1.70;;;16.10;99.90;;;;;;5035377;28;20025;-67
2023/07/30 00:34:01;;;;;;;4.47;1.65;;;16.00;99.90;;;;;;5036965;28;20032;-67
2023/07/30 00:36:27;;;;;;;3.17;1.10;;;16.00;99.90;;;;;;5037167;28;20504;-67
2023/07/30 00:38:52;;;;;;;2.78;1.17;;;16.00;99.90;;;;;;5036848;28;20021;-67
2023/07/30 00:41:18;;;;;;;5.07;1.20;;;16.00;99.90;;;;;;5037107;28;20453;-68
2023/07/30 00:43:45;;;;;;;2.17;1.00;;;16.10;99.90;;;;;;5036720;28;20120;-68
2023/07/30 00:46:11;;;;;;;2.42;0.82;;;16.10;99.90;;;;;;5036807;28;20125;-68
2023/07/30 00:48:37;;;;;;;5.03;0.95;;;16.10;99.90;;;;;;5037240;28;20030;-67
2023/07/30 00:51:03;;;;;;;1.70;0.85;;;16.10;99.90;;;;;;5037177;28;20027;-68
2023/07/30 00:53:29;;;;;;;4.05;0.98;;;16.10;99.90;;;;;;5036941;28;20030;-68
2023/07/30 00:55:55;;;;;;;1.65;0.80;;;16.10;99.90;;;;;;5036546;28;20034;-68
2023/07/30 00:58:22;;;;;;;1.73;0.85;;;16.10;99.90;;;;;;5036489;28;20028;-68
2023/07/30 01:00:48;;;;;;;1.40;0.75;;;16.10;99.90;;;;;;5036525;28;20018;-68
2023/07/30 01:03:14;;;;;;;2.67;0.90;;;16.00;99.90;;;;;;5036259;28;20036;-68
2023/07/30 01:05:40;;;;;;;2.10;0.88;;;16.00;99.90;;;;;;5018748;28;20025;-68
2023/07/30 01:08:05;;;;;;;1.23;0.80;;;16.00;99.90;;;;;;5036523;28;20053;-68
2023/07/30 01:10:33;;;;;;;1.63;0.65;;;16.00;99.90;;;;;;5036593;28;20512;-68
2023/07/30 01:13:03;;;;;;;6.85;0.68;;;16.00;99.90;;;;;;5036271;28;20413;-68
2023/07/30 01:15:29;;;;;;;2.13;1.00;;;16.00;99.90;;;;;;5036324;28;20029;-68
2023/07/30 01:17:55;;;;;;;2.90;0.60;;;16.00;99.90;;;;;;5036138;28;20026;-68
2023/07/30 01:20:21;;;;;;;1.15;0.70;;;16.10;99.90;;;;;;5036085;28;20358;-68
2023/07/30 01:22:47;;;;;;;2.20;1.00;;;16.10;99.90;;;;;;5036412;28;20048;-68
2023/07/30 01:25:13;;;;;;;3.42;1.00;;;16.10;99.90;;;;;;5035767;28;20057;-68
2023/07/30 01:27:44;;;;;;;1.60;0.85;;;16.10;99.90;;;;;;5034728;28;20120;-68
2023/07/30 01:30:17;;;;;;;2.38;0.90;;;16.00;99.90;;;;;;5035900;28;20064;-68
2023/07/30 01:32:44;;;;;;;1.92;0.80;;;16.10;99.90;;;;;;5036120;28;20028;-68
2023/07/30 01:35:13;;;;;;;1.90;0.90;;;16.10;99.90;;;;;;5035828;28;20022;-68
2023/07/30 01:37:41;;;;;;;2.58;1.15;;;16.00;99.90;;;;;;5035770;28;20068;-68
2023/07/30 01:40:07;;;;;;;1.50;0.80;;;16.10;99.90;;;;;;5036230;28;20041;-68
2023/07/30 01:42:33;;;;;;;4.50;1.05;;;16.10;99.90;;;;;;5035509;28;20489;-68
2023/07/30 01:44:59;;;;;;;4.00;1.10;;;16.10;99.90;;;;;;5035742;28;20100;-68
2023/07/30 01:47:24;;;;;;;5.60;1.20;;;16.10;99.90;;;;;;5035551;28;20029;-68
2023/07/30 01:49:50;;;;;;;6.32;0.77;;;16.10;99.90;;;;;;5035786;28;20029;-68
2023/07/30 01:52:15;;;;;;;8.07;2.33;;;16.10;99.90;;;;;;5035496;28;20027;-68
2023/07/30 01:54:42;;;;;;;3.20;1.10;;;16.10;99.90;;;;;;5035400;28;20029;-68
2023/07/30 01:57:08;;;;;;;2.33;0.85;;;16.10;99.90;;;;;;5035398;28;20025;-68
2023/07/30 01:59:33;;;;;;;1.80;0.90;;;16.10;99.90;;;;;;5035572;28;20028;-68
2023/07/30 02:01:59;;;;;;;1.52;0.80;;;16.10;99.90;;;;;;5035325;28;20013;-68
2023/07/30 02:04:24;;;;;;;2.50;0.93;;;16.10;99.90;;;;;;5035161;28;20060;-68
2023/07/30 02:06:50;;;;;;;2.60;0.80;;;16.10;99.90;;;;;;5035196;28;20018;-68
2023/07/30 02:09:16;;;;;;;3.10;0.98;;;16.10;99.90;;;;;;5035160;28;20104;-68
2023/07/30 02:11:44;;;;;;;1.00;0.70;;;16.10;99.90;;;;;;5035211;28;20034;-67
2023/07/30 02:14:10;;;;;;;2.83;1.08;;;16.00;99.90;;;;;;5035228;28;20469;-69
2023/07/30 02:16:36;;;;;;;2.88;1.10;;;16.00;99.90;;;;;;5035318;28;20025;-68
2023/07/30 02:19:01;;;;;;;4.38;1.00;;;15.90;99.90;;;;;;5035339;28;20458;-68
2023/07/30 02:21:27;;;;;;;1.92;1.00;;;15.90;99.90;;;;;;5035037;28;20389;-68
2023/07/30 02:23:53;;;;;;;2.72;0.93;;;15.80;99.90;;;;;;5034707;28;20033;-68
2023/07/30 02:26:19;;;;;;;8.35;1.65;;;15.80;99.90;;;;;;5035027;28;20113;-68
2023/07/30 02:28:44;;;;;;;2.67;1.33;;;15.80;99.90;;;;;;5035360;28;20018;-68
2023/07/30 02:31:10;;;;;;;1.65;1.17;;;15.70;99.90;;;;;;5034699;28;20017;-68
2023/07/30 02:33:35;;;;;;;2.25;1.20;;;15.60;99.90;;;;;;5034681;28;20036;-68
2023/07/30 02:36:01;;;;;;;2.65;1.35;;;15.60;99.90;;;;;;5034151;28;20105;-68
2023/07/30 02:38:26;;;;;;;2.80;0.93;;;15.60;99.90;;;;;;5034553;28;20484;-68
2023/07/30 02:40:52;;;;;;;2.67;1.13;;;15.60;99.90;;;;;;5034534;28;20020;-67
2023/07/30 02:43:18;;;;;;;2.80;1.00;;;15.60;99.90;;;;;;5033191;28;20029;-68
2023/07/30 02:45:47;;;;;;;2.35;1.10;;;15.70;99.90;;;;;;5034564;28;20076;-68
2023/07/30 02:48:13;;;;;;;3.53;1.08;;;15.70;99.90;;;;;;5034945;28;20335;-68
2023/07/30 02:50:38;;;;;;;3.80;1.33;;;15.80;99.90;;;;;;5034366;28;20028;-68
2023/07/30 02:53:04;;;;;;;2.38;1.05;;;15.90;99.90;;;;;;5016654;28;20032;-68
2023/07/30 02:55:29;;;;;;;4.03;1.13;;;15.90;99.90;;;;;;5034287;28;20445;-68
2023/07/30 02:57:55;;;;;;;3.50;1.42;;;16.00;99.90;;;;;;5034212;28;20021;-67
2023/07/30 03:00:21;;;;;;;2.53;1.50;;;15.90;99.90;;;;;;5033924;28;20373;-68
2023/07/30 03:02:46;;;;;;;2.13;1.40;;;15.90;99.90;;;;;;5034094;28;20033;-68
2023/07/30 03:05:12;;;;;;;2.92;1.60;;;15.90;99.90;;;;;;5033842;28;20033;-67
2023/07/30 03:07:38;;;;;;;2.25;1.30;;;15.90;99.90;;;;;;5034354;28;20053;-68
2023/07/30 03:10:04;;;;;;;5.82;1.45;;;15.90;99.90;;;;;;5034639;28;20027;-68
2023/07/30 03:12:29;;;;;;;2.42;1.40;;;15.90;99.90;;;;;;5033732;28;20018;-68
2023/07/30 03:14:55;;;;;;;4.55;1.90;;;16.00;99.90;;;;;;5034453;28;20448;-68
2023/07/30 03:17:20;;;;;;;4.68;1.70;;;16.00;99.90;;;;;;5034251;28;20036;-67
2023/07/30 03:19:46;;;;;;;2.88;1.77;;;16.00;99.90;;;;;;5032653;28;20033;-67
2023/07/30 03:22:12;;;;;;;3.13;1.60;;;16.00;99.90;;;;;;5033926;28;20029;-67
2023/07/30 03:24:37;;;;;;;3.20;1.50;;;16.00;99.90;;;;;;5033823;28;20116;-67
2023/07/30 03:27:03;;;;;;;4.05;2.35;;;16.00;99.90;;;;;;5033825;28;20418;-67
2023/07/30 03:29:29;;;;;;;3.53;2.15;;;16.00;99.90;;;;;;5033866;28;20029;-67
2023/07/30 03:31:55;;;;;;;6.18;2.70;;;16.10;99.90;;;;;;5034044;28;20021;-67
2023/07/30 03:34:20;;;;;;;4.32;2.40;;;16.10;99.90;;;;;;5034417;28;20025;-66
2023/07/30 03:36:46;;;;;;;5.53;2.28;;;16.10;99.90;;;;;;5033993;28;20021;-67
2023/07/30 03:39:12;;;;;;;5.38;1.77;;;16.10;99.90;;;;;;5033612;28;20021;-67
2023/07/30 03:41:37;;;;;;;3.67;1.90;;;16.10;99.90;;;;;;5033652;28;20029;-67
2023/07/30 03:44:03;;;;;;;3.30;2.00;;;16.20;99.90;;;;;;5034046;28;20034;-67
2023/07/30 03:46:29;;;;;;;4.40;2.55;;;16.20;99.90;;;;;;5034134;28;20052;-67
2023/07/30 03:48:54;;;;;;;7.25;3.10;;;16.10;99.90;;;;;;5035323;28;20457;-67
2023/07/30 03:51:20;;;;;;;4.93;2.63;;;16.10;99.90;;;;;;5037606;28;20029;-67
2023/07/30 03:53:45;;;;;;;11.18;3.60;;;16.10;99.90;;;;;;5037589;28;20471;-67
2023/07/30 03:56:11;;;;;;;5.57;3.08;;;16.00;99.90;;;;;;5037580;28;20100;-67
2023/07/30 03:58:37;;;;;;;6.80;2.80;;;16.00;99.90;;;;;;5037315;28;20022;-67
2023/07/30 04:01:03;;;;;;;6.95;3.58;;;16.00;99.90;;;;;;5037819;28;20364;-67
2023/07/30 04:03:28;;;;;;;7.10;4.70;;;16.10;99.90;;;;;;5020065;28;20426;-67
2023/07/30 04:05:54;;;;;;;7.93;4.55;;;16.10;99.90;;;;;;5020029;28;20028;-67
2023/07/30 04:08:20;;;;;;;9.25;5.40;;;16.20;99.90;;;;;;5037458;28;20030;-67
2023/07/30 04:10:46;;;;;;;8.15;4.82;;;16.30;99.90;;;;;;5037370;28;20036;-67
2023/07/30 04:13:11;;;;;;;13.25;5.05;;;16.40;99.90;;;;;;5037069;28;20025;-67
2023/07/30 04:15:37;;;;;;;11.10;5.20;;;16.40;99.90;;;;;;5019235;28;20396;-67
2023/07/30 04:18:03;;;;;;;8.48;5.28;;;16.50;99.90;;;;;;5036889;28;20029;-67
2023/07/30 04:20:28;;;;;;;10.30;5.35;;;16.50;99.90;;;;;;5037239;28;20028;-67
2023/07/30 04:22:54;;;;;;;10.70;5.45;;;16.50;99.90;;;;;;5037389;28;20087;-67
2023/07/30 04:25:19;;;;;;;9.80;5.40;;;16.60;99.90;;;;;;5037535;28;20417;-67
2023/07/30 04:27:45;;;;;;;9.98;5.00;;;16.70;99.90;;;;;;5036957;28;20087;-67
2023/07/30 04:30:11;;;;;;;7.95;4.90;;;16.70;99.90;;;;;;5037514;28;20036;-67
2023/07/30 04:32:37;;;;;;;10.23;4.95;;;16.70;99.90;;;;;;5036607;28;20369;-67
2023/07/30 04:35:03;;;;;;;8.10;4.82;;;16.70;99.90;;;;;;5019045;28;20018;-67
2023/07/30 04:37:28;;;;;;;16.45;5.25;;;16.70;99.90;;;;;;5036843;28;20076;-67
2023/07/30 04:39:54;;;;;;;8.73;4.32;;;16.70;99.90;;;;;;5019279;28;20116;-67
2023/07/30 04:42:20;;;;;;;6.47;4.72;;;16.80;99.90;;;;;;5036404;28;20466;-67
2023/07/30 04:44:45;;;;;;;7.30;4.85;;;16.80;99.90;;;;;;5036702;28;20038;-67
2023/07/30 04:47:11;;;;;;;8.00;4.55;;;16.80;99.90;;;;;;5036610;28;20057;-66
2023/07/30 04:49:40;;;;;;;10.70;4.70;;;16.80;99.90;;;;;;5036451;28;20044;-65
2023/07/30 04:52:08;;;;;;;5.97;4.25;;;16.80;99.90;;;;;;5036448;28;20013;-66
2023/07/30 04:54:36;;;;;;;9.32;4.55;;;16.80;99.90;;;;;;5019143;28;20048;-67
2023/07/30 04:57:02;;;;;;;8.82;4.65;;;16.80;99.90;;;;;;5036259;28;20497;-66
2023/07/30 04:59:28;;;;;;;7.63;4.43;;;16.90;99.90;;;;;;5035661;28;20032;-67
2023/07/30 05:01:53;;;;;;;12.75;4.97;;;16.90;99.90;;;;;;5036221;28;20025;-66
2023/07/30 05:04:19;;;;;;;10.05;5.28;;;17.10;99.90;;;;;;5036426;28;20100;-67
2023/07/30 05:06:44;;;;;;;11.85;5.53;;;17.20;99.90;;;;;;5036388;28;20079;-67
2023/07/30 05:09:11;;;;;;;9.50;5.38;;;17.30;99.90;;;;;;5035861;28;20084;-67
2023/07/30 05:11:38;;;;;;;7.32;4.45;;;17.40;99.90;;;;;;5036293;28;20028;-66
2023/07/30 05:14:04;;;;;;;7.15;4.85;;;17.40;99.90;;;;;;5036481;28;20037;-67
2023/07/30 05:16:29;;;;;;;8.43;5.22;;;17.50;99.90;;;;;;5036147;28;20084;-66
2023/07/30 05:18:55;;;;;;;11.32;5.97;;;17.50;99.90;;;;;;5036399;28;20087;-67
2023/07/30 05:21:21;;;;;;;11.63;5.13;;;17.50;99.90;;;;;;5035805;28;20017;-67
2023/07/30 05:23:46;;;;;;;9.40;5.45;;;17.50;99.90;;;;;;5035741;28;20029;-66
2023/07/30 05:26:12;;;;;;;10.85;5.07;;;17.50;99.90;;;;;;5035481;28;20036;-71
2023/07/30 05:28:37;;;;;;;9.30;4.88;;;17.60;99.90;;;;;;5036013;28;20025;-68
2023/07/30 05:31:03;;;;;;;7.93;4.82;;;17.60;99.90;;;;;;5035823;28;20029;-68
2023/07/30 05:33:29;;;;;;;9.40;5.20;;;17.60;99.90;;;;;;5035798;28;20022;-68
2023/07/30 05:35:54;;;;;;;6.97;4.82;;;17.70;99.90;;;;;;5035428;28;20025;-68
2023/07/30 05:38:20;;;;;;;11.20;5.50;;;17.80;99.90;;;;;;5018698;28;20021;-68
2023/07/30 05:40:45;;;;;;;7.30;5.00;;;17.80;99.90;;;;;;5035536;28;20361;-68
2023/07/30 05:43:11;;;;;;;7.82;5.15;;;17.70;99.90;;;;;;5035426;28;20378;-68
2023/07/30 05:45:37;;;;;;;11.90;5.38;;;17.70;99.90;;;;;;5035406;28;20120;-68
2023/07/30 05:48:02;;;;;;;8.25;5.15;;;17.60;99.90;;;;;;5035508;28;20029;-68
2023/07/30 05:50:28;;;;;;;9.05;5.40;;;17.50;99.90;;;;;;5035721;28;20025;-68
2023/07/30 05:52:54;;;;;;;11.10;5.60;;;17.60;99.90;;;;;;5035626;28;20017;-68
2023/07/30 05:55:19;;;;;;;11.60;5.32;;;17.50;99.90;;;;;;5035303;28;20072;-67
2023/07/30 05:57:45;;;;;;;9.15;5.40;;;17.50;99.90;;;;;;5034990;28;20025;-68
2023/07/30 06:00:11;;;;;;;12.07;5.35;;;17.40;99.90;;;;;;5035113;28;20446;-68
2023/07/30 06:02:37;;;;;;;10.57;5.03;;;17.40;99.90;;;;;;5035707;28;20075;-68
2023/07/30 06:05:03;;;;;;;8.50;5.53;;;17.40;99.90;;;;;;5035052;28;20091;-68
2023/07/30 06:07:29;;;;;;;10.70;5.57;;;17.40;99.90;;;;;;5034956;28;20021;-68
2023/07/30 06:09:54;;;;;;;10.18;5.45;;;17.40;99.90;;;;;;5035220;28;20408;-68
2023/07/30 06:12:20;;;;;;;10.35;5.32;;;17.40;99.90;;;;;;5033807;28;20415;-68
2023/07/30 06:14:45;;;;;;;8.90;5.03;;;17.40;99.90;;;;;;5035182;28;20036;-68
2023/07/30 06:17:14;;;;;;;9.02;5.22;;;17.50;99.90;;;;;;5034816;28;20044;-68
2023/07/30 06:19:40;;;;;;;12.85;5.97;;;17.40;99.90;;;;;;5034748;28;20438;-68
2023/07/30 06:22:05;;;;;;;11.45;5.60;;;17.40;99.90;;;;;;5017070;28;20147;-68
2023/07/30 06:24:31;;;;;;;10.15;5.28;;;17.40;99.90;;;;;;5034625;28;20030;-68
2023/07/30 06:26:56;;;;;;;11.73;5.05;;;17.40;99.90;;;;;;5034693;28;20017;-68
2023/07/30 06:29:24;;;;;;;9.07;5.03;;;17.40;99.90;;;;;;5034558;28;20021;-68
2023/07/30 06:31:50;;;;;;;9.52;5.00;;;17.40;99.90;;;;;;5034058;28;20027;-68
2023/07/30 06:34:16;;;;;;;7.72;4.65;;;17.40;99.90;;;;;;5034533;28;20377;-68
2023/07/30 06:36:41;;;;;;;9.68;5.32;;;17.40;99.90;;;;;;5034517;28;20116;-68
2023/07/30 06:39:07;;;;;;;11.45;5.55;;;17.40;99.90;;;;;;5034780;28;20021;-68
2023/07/30 06:41:33;;;;;;;9.77;5.05;;;17.40;99.90;;;;;;5034409;28;20056;-67
2023/07/30 06:43:58;;;;;;;8.85;5.60;;;17.40;99.90;;;;;;5035009;28;20030;-67
2023/07/30 06:46:24;;;;;;;8.93;5.45;;;17.30;99.90;;;;;;5034285;28;20045;-67
2023/07/30 06:48:49;;;;;;;8.73;5.20;;;17.30;99.90;;;;;;5035098;28;20104;-68
2023/07/30 06:51:19;;;;;;;8.75;5.60;;;17.40;99.90;;;;;;5034551;28;20029;-68
2023/07/30 06:53:44;;;;;;;7.32;4.78;;;17.30;99.90;;;;;;5034403;28;20075;-68
2023/07/30 06:56:10;;;;;;;7.30;4.80;;;17.30;99.90;;;;;;5034145;28;20021;-68
2023/07/30 06:58:35;;;;;;;9.05;5.32;;;17.40;99.90;;;;;;5034566;28;20456;-68
2023/07/30 07:01:01;;;;;;;8.48;4.47;;;17.40;99.90;;;;;;5034272;28;20069;-68
2023/07/30 07:03:27;;;;;;;7.85;4.40;;;17.50;99.90;;;;;;5033655;28;20355;-67
2023/07/30 07:05:56;;;;;;;6.90;4.47;;;17.50;99.90;;;;;;5034012;28;20097;-69
2023/07/30 07:08:22;;;;;;;7.82;4.45;;;17.70;99.90;;;;;;5033627;28;20108;-69
2023/07/30 07:10:49;;;;;;;6.28;4.47;;;17.80;99.90;;;;;;5033947;28;20068;-68
2023/07/30 07:13:17;;;;;;;7.15;4.28;;;18.10;99.90;;;;;;5033814;28;20438;-70
2023/07/30 07:15:44;;;;;;;8.75;4.82;;;18.30;99.90;;;;;;5034172;28;20021;-71
2023/07/30 07:18:10;;;;;;;7.50;4.93;;;18.30;99.90;;;;;;5033657;28;20444;-71
2023/07/30 07:20:36;;;;;;;10.45;4.38;;;18.30;99.90;;;;;;5034402;28;20018;-71
2023/07/30 07:23:02;;;;;;;6.00;4.20;;;18.20;99.90;;;;;;5033729;28;20021;-71
2023/07/30 07:25:28;;;;;;;7.70;4.65;;;18.10;99.90;;;;;;5032561;28;20021;-71
2023/07/30 07:27:54;;;;;;;6.00;3.92;;;18.10;99.90;;;;;;5032493;28;20111;-70
2023/07/30 07:30:19;;;;;;;6.63;4.43;;;18.10;99.90;;;;;;5032500;28;20022;-69
2023/07/30 07:32:45;;;;;;;10.30;5.05;;;18.00;99.90;;;;;;5032497;28;20018;-71
2023/07/30 07:35:10;;;;;;;8.43;4.65;;;18.10;99.90;;;;;;5033739;28;20026;-70
2023/07/30 07:37:36;;;;;;;6.70;4.43;;;18.00;99.90;;;;;;5034019;28;20101;-71
2023/07/30 07:40:03;;;;;;;6.85;4.57;;;18.10;99.90;;;;;;5033696;28;20367;-72
2023/07/30 07:42:30;;;;;;;7.60;4.78;;;18.30;99.90;;;;;;5033706;28;20025;-69
2023/07/30 07:44:56;;;;;;;7.82;4.30;;;18.70;99.90;;;;;;5033510;28;20037;-69
2023/07/30 07:47:22;;;;;;;6.38;4.25;;;18.80;99.90;;;;;;5033738;28;20059;-71
2023/07/30 07:49:48;;;;;;;7.00;3.80;;;18.80;99.90;;;;;;5033331;28;20033;-70
2023/07/30 07:52:14;;;;;;;5.43;3.10;;;18.80;99.90;;;;;;5033522;28;20075;-72
2023/07/30 07:54:41;;;;;;;8.07;3.80;;;18.70;99.90;;;;;;5033603;28;20028;-71
2023/07/30 07:57:07;;;;;;;4.97;3.05;;;18.70;99.90;;;;;;5033522;28;20450;-70
2023/07/30 07:59:33;;;;;;;5.40;3.55;;;18.60;99.90;;;;;;5033486;28;20051;-69
2023/07/30 08:01:58;;;;;;;5.18;3.33;;;18.70;99.90;;;;;;5033788;28;20353;-70
2023/07/30 08:04:24;;;;;;;4.38;2.95;;;18.70;99.90;;;;;;5034048;28;20038;-71
2023/07/30 08:06:50;;;;;;;4.07;2.85;;;18.70;99.90;;;;;;5033488;28;20079;-70
2023/07/30 08:09:15;;;;;;;6.40;3.35;;;18.70;99.90;;;;;;5033716;28;20438;-71
2023/07/30 08:11:41;;;;;;;5.28;3.28;;;18.70;99.90;;;;;;5033395;28;20018;-70
2023/07/30 08:14:06;;;;;;;7.13;3.13;;;18.60;99.90;;;;;;5033016;28;20084;-70
2023/07/30 08:16:32;;;;;;;4.57;2.60;;;18.60;99.90;;;;;;5033764;28;20022;-70
2023/07/30 08:18:58;;;;;;;4.97;3.20;;;18.60;99.90;;;;;;5033637;28;20071;-73
2023/07/30 08:21:23;;;;;;;4.85;2.58;;;18.60;99.90;;;;;;5033384;28;20096;-72
2023/07/30 08:23:49;;;;;;;6.00;2.88;;;18.50;99.90;;;;;;5033749;28;20076;-72
2023/07/30 08:26:15;;;;;;;5.70;2.80;;;18.40;99.90;;;;;;5033319;28;20013;-72
2023/07/30 08:28:40;;;;;;;6.28;2.72;;;18.40;99.90;;;;;;5033525;28;20026;-71
2023/07/30 08:31:06;;;;;;;5.93;3.13;;;18.30;99.90;;;;;;5033497;28;20064;-70
2023/07/30 08:33:32;;;;;;;5.13;2.67;;;18.30;99.90;;;;;;5032893;28;20029;-71
2023/07/30 08:35:59;;;;;;;6.30;3.35;;;18.40;99.90;;;;;;5035817;28;20033;-70
2023/07/30 08:38:25;;;;;;;6.15;3.35;;;18.40;99.90;;;;;;5036896;28;20105;-70
2023/07/30 08:40:51;;;;;;;4.82;3.08;;;18.60;99.90;;;;;;5036824;28;20052;-71
2023/07/30 08:43:19;;;;;;;5.68;2.92;;;18.60;99.90;;;;;;5036977;28;20025;-70
2023/07/30 08:45:45;;;;;;;5.15;3.13;;;18.60;99.90;;;;;;5035687;28;20128;-71
2023/07/30 08:48:10;;;;;;;3.67;2.50;;;18.40;99.90;;;;;;5036358;28;20125;-73
2023/07/30 08:50:37;;;;;;;4.05;2.55;;;18.30;99.90;;;;;;5018909;28;20026;-71
2023/07/30 08:53:03;;;;;;;4.25;2.58;;;18.20;99.90;;;;;;5036525;28;20021;-71
2023/07/30 08:55:32;;;;;;;5.47;2.10;;;18.00;99.90;;;;;;5037303;28;20026;-72
2023/07/30 08:58:01;;;;;;;4.75;2.35;;;17.90;99.90;;;;;;5036985;28;20032;-73
2023/07/30 09:00:33;;;;;;;5.72;2.30;;;17.80;99.90;;;;;;5036466;28;20404;-71
2023/07/30 09:03:00;;;;;;;4.25;2.22;;;17.70;99.90;;;;;;5036894;28;20025;-72
2023/07/30 09:05:29;;;;;;;4.93;2.35;;;17.60;99.90;;;;;;5036357;28;20093;-74
2023/07/30 09:07:56;;;;;;;4.07;2.40;;;17.50;99.90;;;;;;5036022;28;20029;-74
2023/07/30 09:10:22;;;;;;;7.95;2.42;;;17.40;99.90;;;;;;5018355;28;20374;-72
2023/07/30 09:13:00;;;;;;;5.35;2.30;;;17.40;99.90;;;;;;5036744;28;20022;-71
2023/07/30 09:15:32;;;;;;;3.58;2.30;;;17.50;99.90;;;;;;5036950;28;20028;-71
2023/07/30 09:17:58;;;;;;;4.00;2.42;;;17.70;99.90;;;;;;5036147;28;20026;-70
2023/07/30 09:20:23;;;;;;;8.40;2.83;;;17.80;99.90;;;;;;5036092;28;20017;-70
2023/07/30 09:22:49;;;;;;;7.07;2.50;;;18.00;99.90;;;;;;5036255;28;20022;-70
2023/07/30 09:25:22;;;;;;;5.18;2.40;;;18.10;99.90;;;;;;5036504;28;20037;-71
2023/07/30 09:27:49;;;;;;;3.15;2.13;;;18.30;99.90;;;;;;5036343;28;20021;-72
2023/07/30 09:30:21;;;;;;;6.47;2.90;;;18.20;99.90;;;;;;5036227;28;20033;-71
2023/07/30 09:32:52;;;;;;;5.57;2.70;;;18.30;99.90;;;;;;5036224;28;20024;-73
2023/07/30 09:35:19;;;;;;;4.07;2.30;;;18.40;99.90;;;;;;5035859;28;20104;-71
2023/07/30 09:37:45;;;;;;;6.53;3.33;;;18.50;99.90;;;;;;5035641;28;20033;-70
2023/07/30 09:40:13;;;;;;;6.93;2.85;;;18.50;99.90;;;;;;5035465;28;20021;-70
2023/07/30 09:42:42;;;;;;;4.72;2.50;;;18.60;99.90;;;;;;5035927;28;20022;-71
2023/07/30 09:45:16;;;;;;;5.80;2.47;;;18.60;99.90;;;;;;5035399;28;20041;-71
2023/07/30 09:47:49;;;;;;;5.63;3.00;;;18.60;99.90;;;;;;5035931;28;20033;-70
2023/07/30 09:50:15;;;;;;;4.78;2.70;;;18.60;99.90;;;;;;5035708;28;20025;-71
2023/07/30 09:52:42;;;;;;;4.68;2.50;;;18.90;99.90;;;;;;5035529;28;20074;-71
2023/07/30 09:55:08;;;;;;;4.82;2.80;;;18.90;99.90;;;;;;5035449;28;20029;-71
2023/07/30 09:57:34;;;;;;;6.30;2.95;;;19.10;99.90;;;;;;5035377;28;20025;-71
2023/07/30 10:00:01;;;;;;;5.75;2.65;;;19.40;99.90;;;;;;5035443;28;20026;-71
2023/07/30 10:02:31;;;;;;;4.40;3.15;;;19.40;99.90;;;;;;5035921;28;20017;-71
2023/07/30 10:04:58;;;;;;;5.03;3.22;;;19.40;99.90;;;;;;5034598;28;20021;-70
2023/07/30 10:07:26;;;;;;;4.55;2.70;;;19.10;99.90;;;;;;5035251;28;20033;-69
2023/07/30 10:09:55;;;;;;;6.57;3.05;;;18.90;99.90;;;;;;5034017;28;20032;-70
2023/07/30 10:12:27;;;;;;;7.47;3.50;;;18.90;99.90;;;;;;5035179;28;20025;-70
2023/07/30 10:14:53;;;;;;;5.20;3.13;;;18.90;99.90;;;;;;5035758;28;20033;-70
2023/07/30 10:17:19;;;;;;;5.93;3.13;;;18.90;99.90;;;;;;5035555;28;20125;-70
2023/07/30 10:19:49;;;;;;;5.18;2.63;;;18.90;99.90;;;;;;5035057;28;20051;-70
2023/07/30 10:22:14;;;;;;;6.63;3.15;;;18.90;99.90;;;;;;5035002;28;20025;-70
2023/07/30 10:24:59;;;;;;;6.70;2.60;;;18.80;99.90;;;;;;5035167;28;20104;-69
2023/07/30 10:27:27;;;;;;;4.03;2.92;;;18.80;99.90;;;;;;5035147;28;20159;-70
2023/07/30 10:30:12;;;;;;;4.18;2.63;;;18.80;99.90;;;;;;5034843;28;20029;-72
2023/07/30 10:32:57;;;;;;;5.80;2.40;;;18.70;99.90;;;;;;5035112;28;20021;-70
2023/07/30 10:35:43;;;;;;;4.47;2.85;;;18.70;99.90;;;;;;5034805;28;20460;-70
2023/07/30 10:38:39;;;;;;;3.47;2.35;;;18.90;99.90;;;;;;5034972;28;20022;-71
2023/07/30 10:41:10;;;;;;;4.78;2.65;;;19.00;99.90;;;;;;5033333;28;20029;-71
2023/07/30 10:43:40;;;;;;;4.50;2.45;;;19.20;99.90;;;;;;5034761;28;20024;-70
2023/07/30 10:46:07;;;;;;;;;;;19.20;99.90;;;;;;5017010;28;20091;-70
2023/07/30 10:48:37;;;;;;;4.60;2.80;;;19.10;99.90;;;;;;5034484;28;20353;-70
2023/07/30 10:51:05;;;;;;;6.00;2.80;;;19.00;99.90;;;;;;5034414;28;20024;-71
2023/07/30 10:53:31;;;;;;;4.68;2.50;;;18.80;99.90;;;;;;5016737;28;20411;-69
2023/07/30 10:56:01;;;;;;;4.05;2.38;;;18.60;99.90;;;;;;5034003;28;20096;-68
2023/07/30 10:58:27;;;;;;;6.15;2.58;;;18.50;99.90;;;;;;5033821;28;20017;-69
2023/07/30 11:00:54;;;;;;;5.38;3.15;;;18.50;99.90;;;;;;5034539;28;20017;-69
2023/07/30 11:03:19;;;;;;;4.53;2.70;;;18.50;99.90;;;;;;5034113;28;20041;-69
2023/07/30 11:05:48;;;;;;;3.95;2.70;;;18.50;99.90;;;;;;5033900;28;20022;-68
2023/07/30 11:08:15;;;;;;;4.82;2.60;;;18.60;99.90;;;;;;5034108;28;20104;-68
2023/07/30 11:10:47;;;;;;;5.65;2.95;;;18.70;99.90;;;;;;5034301;28;20107;-69
2023/07/30 11:13:14;;;;;;;6.47;2.67;;;18.90;99.90;;;;;;5033765;28;20017;-69
2023/07/30 11:15:43;;;;;;;4.20;2.60;;;19.10;99.90;;;;;;5033857;28;20025;-69
2023/07/30 11:18:11;;;;;;;5.93;2.80;;;19.30;99.90;;;;;;5016255;28;20139;-69
2023/07/30 11:20:37;;;;;;;7.10;2.70;;;19.50;99.90;;;;;;5034149;28;20520;-69
2023/07/30 11:23:02;;;;;;;8.25;2.83;;;19.70;99.90;;;;;;5016100;28;20056;-69
2023/07/30 11:25:28;;;;;;;5.70;2.80;;;19.70;99.90;;;;;;5033882;28;20057;-69
2023/07/30 11:27:54;;;;;;;5.57;2.70;;;19.90;99.90;;;;;;5034161;28;20021;-69
2023/07/30 11:30:19;;;;;;;5.93;2.53;;;20.20;99.90;;;;;;5034117;28;20093;-69
2023/07/30 11:32:45;;;;;;;4.05;2.60;;;20.50;99.90;;;;;;5033511;28;20028;-69
2023/07/30 11:35:12;;;;;;;4.38;2.55;;;20.70;99.90;;;;;;5033776;28;20064;-70
2023/07/30 11:37:40;;;;;;;4.38;2.60;;;20.60;99.90;;;;;;5032582;28;20072;-69
2023/07/30 11:40:10;;;;;;;6.65;2.72;;;20.70;99.90;;;;;;5033714;28;20454;-69
2023/07/30 11:42:36;;;;;;;4.57;2.80;;;20.70;99.90;;;;;;5033707;28;20022;-70
2023/07/30 11:45:23;;;;;;;8.27;3.10;;;20.70;99.90;;;;;;5033742;28;20037;-69
2023/07/30 11:47:50;;;;;;;8.13;2.90;;;20.50;99.90;;;;;;5033633;28;20095;-70
2023/07/30 11:50:16;;;;;;;6.45;2.88;;;20.40;99.90;;;;;;5033654;28;20021;-70
2023/07/30 11:52:56;;;;;;;8.10;2.78;;;20.40;99.90;;;;;;5033931;28;20021;-70
2023/07/30 11:55:24;;;;;;;7.93;2.88;;;20.80;99.90;;;;;;5016298;28;20580;-70
2023/07/30 11:57:50;;;;;;;6.15;3.00;;;20.90;99.90;;;;;;5033556;28;20366;-70
2023/07/30 12:00:16;;;;;;;6.05;2.40;;;21.10;99.90;;;;;;5033758;28;20022;-71
2023/07/30 12:02:42;;;;;;;9.93;2.80;;;21.10;99.90;;;;;;5032763;28;20021;-70
2023/07/30 12:05:11;;;;;;;5.72;2.90;;;20.70;99.90;;;;;;5033389;28;20083;-71
2023/07/30 12:07:41;;;;;;;6.40;2.58;;;20.40;99.90;;;;;;5033477;28;20056;-71
2023/07/30 12:10:11;;;;;;;3.83;2.72;;;20.20;99.90;;;;;;5035155;28;20024;-70
2023/07/30 12:12:43;;;;;;;4.80;2.75;;;20.10;99.90;;;;;;5037214;28;20048;-70
2023/07/30 12:15:12;;;;;;;5.72;2.85;;;20.00;99.90;;;;;;5038049;28;20029;-70
2023/07/30 12:17:40;;;;;;;6.68;2.75;;;20.10;99.90;;;;;;5037456;28;20041;-71
2023/07/30 12:20:06;;;;;;;5.38;3.25;;;20.10;99.90;;;;;;5037273;28;20018;-71
2023/07/30 12:22:35;;;;;;;11.40;3.45;;;20.60;99.90;;;;;;5019723;28;20029;-71
2023/07/30 12:25:03;;;;;;;5.78;2.92;;;20.80;99.90;;;;;;5037177;28;20022;-71
2023/07/30 12:27:29;;;;;;;6.72;2.78;;;21.00;99.90;;;;;;5037233;28;20033;-70
2023/07/30 12:29:55;;;;;;;4.25;2.60;;;21.40;99.90;;;;;;5037077;28;20018;-71
2023/07/30 12:32:20;;;;;;;3.88;2.42;;;21.60;99.90;;;;;;5019804;28;20028;-72
2023/07/30 12:34:46;;;;;;;10.10;3.15;;;21.70;99.90;;;;;;5037429;28;20036;-71
2023/07/30 12:37:12;;;;;;;4.93;2.72;;;21.60;99.90;;;;;;5036688;28;20032;-71
2023/07/30 12:39:37;;;;;;;5.53;2.83;;;21.50;99.90;;;;;;5036907;28;20438;-71
2023/07/30 12:42:03;;;;;;;3.92;2.40;;;21.60;99.90;;;;;;5036867;28;20401;-71
2023/07/30 12:44:29;;;;;;;8.60;2.47;;;21.70;99.90;;;;;;5036734;28;20428;-73